Hauptseite
METAR-TAF:

METAR-TAF

Flughäfen :

RAF Northolt

Northolt, England

Breite: 51-33N, Länge: 000-25W, Höhe: 38 m

Beobachtung

Neuester Wetterbericht von vor 34 Minuten, um 12:50 UTC
Wind 13 kt aus Nord/Nordost
Temperatur 22°C
Luftfeuchtigkeit 50%
Luftdruck 1016 hPa
Sichtweite 10 km oder mehr
Leicht bewölkt in der Höhe von 3900 ft

METAR: EGWU 221250Z 03013KT 9999 FEW039 22/11 Q1016 NOSIG

Zeit: 14:24 (13:24 UTC)

Prognose

Neuester Wetterbericht von vor 2 Stunden und 35 Minuten, um 10:49 UTC
Gültige Prognose vom 22 um 12 UTC bis 23 um 06 UTC
Wind 10 kt aus Nord/Nordost
Sichtweite 10 km oder mehr
Leicht bewölkt in der Höhe von 4500 ft
Übergehend zu
vom 23 um 00 UTC bis 23 um 03 UTC
Aufgelockert bewölkt in der Höhe von 800 ft

TAF: EGWU 221049Z 2212/2306 03010KT 9999 FEW045 BECMG 2300/2303 SCT008

Wetterbeobachtungen und Prognosen von mehr als 4000 Flughäfen (METAR und TAF Bericht).

Die verfügbaren Stationen werden durch gelbe und rote Markierungen auf der Karte dargestellt.

Führen Sie die Maus auf sie, um den Namen der Station zu sehen.

Darauf klicken, um die Beobachtung von Wetterbeobachtungen und Prognosen zu sehen.

Um die Karte zu ändern : klicken Sie auf den grünen Tasten mit einem schwarzen Kreuz Zum Vergrößern, auf den grünen Button mit einem Gedankenstrich zu verkleinern, oder auf die grünen Pfeile für benachbarte Karten.


METAR-TAF: